sensor_id;sensor_type;location;lat;lon;timestamp;P1;durP1;ratioP1;P2;durP2;ratioP2
2386;SDS011;49473;50.772;8.768;2024-01-30T00:00:06;17.00;;;15.20;;
2386;SDS011;49473;50.772;8.768;2024-01-30T00:02:35;18.00;;;13.63;;
2386;SDS011;49473;50.772;8.768;2024-01-30T00:05:02;19.00;;;14.13;;
2386;SDS011;49473;50.772;8.768;2024-01-30T00:07:29;15.80;;;14.20;;
2386;SDS011;49473;50.772;8.768;2024-01-30T00:09:57;16.53;;;14.83;;
2386;SDS011;49473;50.772;8.768;2024-01-30T00:12:24;20.37;;;17.33;;
2386;SDS011;49473;50.772;8.768;2024-01-30T00:14:51;18.30;;;16.37;;
2386;SDS011;49473;50.772;8.768;2024-01-30T00:17:18;19.57;;;17.57;;
2386;SDS011;49473;50.772;8.768;2024-01-30T00:19:45;19.53;;;16.93;;
2386;SDS011;49473;50.772;8.768;2024-01-30T00:22:12;17.63;;;15.73;;
2386;SDS011;49473;50.772;8.768;2024-01-30T00:24:39;20.53;;;15.17;;
2386;SDS011;49473;50.772;8.768;2024-01-30T00:27:07;20.50;;;16.00;;
2386;SDS011;49473;50.772;8.768;2024-01-30T00:29:34;19.67;;;16.13;;
2386;SDS011;49473;50.772;8.768;2024-01-30T00:32:01;15.87;;;14.20;;
2386;SDS011;49473;50.772;8.768;2024-01-30T00:34:27;16.90;;;14.30;;
2386;SDS011;49473;50.772;8.768;2024-01-30T00:36:54;16.73;;;14.60;;
2386;SDS011;49473;50.772;8.768;2024-01-30T00:39:21;16.07;;;14.07;;
2386;SDS011;49473;50.772;8.768;2024-01-30T00:41:47;16.70;;;14.80;;
2386;SDS011;49473;50.772;8.768;2024-01-30T00:44:15;16.07;;;13.10;;
2386;SDS011;49473;50.772;8.768;2024-01-30T00:46:42;14.13;;;12.80;;
2386;SDS011;49473;50.772;8.768;2024-01-30T00:49:10;15.77;;;13.60;;
2386;SDS011;49473;50.772;8.768;2024-01-30T00:51:36;14.60;;;12.90;;
2386;SDS011;49473;50.772;8.768;2024-01-30T00:54:03;17.87;;;14.60;;
2386;SDS011;49473;50.772;8.768;2024-01-30T00:56:31;14.27;;;12.77;;
2386;SDS011;49473;50.772;8.768;2024-01-30T00:58:58;15.83;;;13.90;;
2386;SDS011;49473;50.772;8.768;2024-01-30T01:01:26;16.17;;;14.33;;
2386;SDS011;49473;50.772;8.768;2024-01-30T01:03:52;17.43;;;14.90;;
2386;SDS011;49473;50.772;8.768;2024-01-30T01:06:19;18.57;;;14.37;;
2386;SDS011;49473;50.772;8.768;2024-01-30T01:08:46;16.03;;;13.63;;
2386;SDS011;49473;50.772;8.768;2024-01-30T01:11:12;16.27;;;14.57;;
2386;SDS011;49473;50.772;8.768;2024-01-30T01:13:39;16.47;;;14.40;;
2386;SDS011;49473;50.772;8.768;2024-01-30T01:16:06;17.77;;;15.30;;
2386;SDS011;49473;50.772;8.768;2024-01-30T01:18:34;17.37;;;15.47;;
2386;SDS011;49473;50.772;8.768;2024-01-30T01:21:01;16.33;;;13.93;;
2386;SDS011;49473;50.772;8.768;2024-01-30T01:23:27;16.03;;;14.40;;
2386;SDS011;49473;50.772;8.768;2024-01-30T01:25:54;18.17;;;13.30;;
2386;SDS011;49473;50.772;8.768;2024-01-30T01:28:21;17.00;;;14.03;;
2386;SDS011;49473;50.772;8.768;2024-01-30T01:30:47;16.00;;;14.30;;
2386;SDS011;49473;50.772;8.768;2024-01-30T01:33:14;14.97;;;13.30;;
2386;SDS011;49473;50.772;8.768;2024-01-30T01:35:42;15.77;;;14.10;;
2386;SDS011;49473;50.772;8.768;2024-01-30T01:38:09;15.00;;;13.07;;
2386;SDS011;49473;50.772;8.768;2024-01-30T01:40:35;13.60;;;12.23;;
2386;SDS011;49473;50.772;8.768;2024-01-30T01:43:04;14.70;;;13.10;;
2386;SDS011;49473;50.772;8.768;2024-01-30T01:45:31;18.83;;;13.90;;
2386;SDS011;49473;50.772;8.768;2024-01-30T01:47:58;16.07;;;13.40;;
2386;SDS011;49473;50.772;8.768;2024-01-30T01:50:24;16.90;;;14.23;;
2386;SDS011;49473;50.772;8.768;2024-01-30T01:52:53;17.00;;;13.70;;
2386;SDS011;49473;50.772;8.768;2024-01-30T01:55:21;14.70;;;13.30;;
2386;SDS011;49473;50.772;8.768;2024-01-30T01:57:49;17.20;;;13.73;;
2386;SDS011;49473;50.772;8.768;2024-01-30T02:00:16;15.17;;;13.57;;
2386;SDS011;49473;50.772;8.768;2024-01-30T02:02:46;16.43;;;13.13;;
2386;SDS011;49473;50.772;8.768;2024-01-30T02:05:14;15.47;;;13.23;;
2386;SDS011;49473;50.772;8.768;2024-01-30T02:07:42;16.43;;;13.63;;
2386;SDS011;49473;50.772;8.768;2024-01-30T02:10:10;14.60;;;12.97;;
2386;SDS011;49473;50.772;8.768;2024-01-30T02:12:37;20.00;;;14.37;;
2386;SDS011;49473;50.772;8.768;2024-01-30T02:15:05;16.20;;;14.30;;
2386;SDS011;49473;50.772;8.768;2024-01-30T02:17:33;15.40;;;13.40;;
2386;SDS011;49473;50.772;8.768;2024-01-30T02:19:59;14.60;;;13.00;;
2386;SDS011;49473;50.772;8.768;2024-01-30T02:22:27;16.10;;;13.27;;
2386;SDS011;49473;50.772;8.768;2024-01-30T02:24:54;15.27;;;12.87;;
2386;SDS011;49473;50.772;8.768;2024-01-30T02:27:21;14.20;;;12.80;;
2386;SDS011;49473;50.772;8.768;2024-01-30T02:29:48;15.23;;;13.70;;
2386;SDS011;49473;50.772;8.768;2024-01-30T02:32:14;14.73;;;12.47;;
2386;SDS011;49473;50.772;8.768;2024-01-30T02:34:41;16.30;;;13.67;;
2386;SDS011;49473;50.772;8.768;2024-01-30T02:37:08;14.10;;;12.60;;
2386;SDS011;49473;50.772;8.768;2024-01-30T02:39:36;16.73;;;13.20;;
2386;SDS011;49473;50.772;8.768;2024-01-30T02:42:03;18.87;;;13.23;;
2386;SDS011;49473;50.772;8.768;2024-01-30T02:44:30;16.50;;;13.57;;
2386;SDS011;49473;50.772;8.768;2024-01-30T02:46:57;15.80;;;13.33;;
2386;SDS011;49473;50.772;8.768;2024-01-30T02:49:23;14.43;;;13.03;;
2386;SDS011;49473;50.772;8.768;2024-01-30T02:51:51;16.37;;;13.27;;
2386;SDS011;49473;50.772;8.768;2024-01-30T02:54:18;14.70;;;11.80;;
2386;SDS011;49473;50.772;8.768;2024-01-30T02:56:46;14.73;;;13.10;;
2386;SDS011;49473;50.772;8.768;2024-01-30T02:59:13;15.87;;;12.87;;
2386;SDS011;49473;50.772;8.768;2024-01-30T03:01:43;13.40;;;12.10;;
2386;SDS011;49473;50.772;8.768;2024-01-30T03:04:10;15.60;;;13.30;;
2386;SDS011;49473;50.772;8.768;2024-01-30T03:06:37;16.47;;;12.47;;
2386;SDS011;49473;50.772;8.768;2024-01-30T03:09:03;14.17;;;12.67;;
2386;SDS011;49473;50.772;8.768;2024-01-30T03:11:30;14.47;;;12.60;;
2386;SDS011;49473;50.772;8.768;2024-01-30T03:13:58;15.87;;;13.60;;
2386;SDS011;49473;50.772;8.768;2024-01-30T03:16:25;20.77;;;13.57;;
2386;SDS011;49473;50.772;8.768;2024-01-30T03:18:53;16.30;;;12.57;;
2386;SDS011;49473;50.772;8.768;2024-01-30T03:21:19;17.27;;;14.00;;
2386;SDS011;49473;50.772;8.768;2024-01-30T03:23:46;17.17;;;14.67;;
2386;SDS011;49473;50.772;8.768;2024-01-30T03:26:13;16.60;;;13.10;;
2386;SDS011;49473;50.772;8.768;2024-01-30T03:28:40;15.57;;;13.97;;
2386;SDS011;49473;50.772;8.768;2024-01-30T03:31:08;15.47;;;13.87;;
2386;SDS011;49473;50.772;8.768;2024-01-30T03:33:36;17.03;;;15.17;;
2386;SDS011;49473;50.772;8.768;2024-01-30T03:36:03;17.77;;;14.83;;
2386;SDS011;49473;50.772;8.768;2024-01-30T03:38:30;16.20;;;14.70;;
2386;SDS011;49473;50.772;8.768;2024-01-30T03:40:58;20.13;;;14.30;;
2386;SDS011;49473;50.772;8.768;2024-01-30T03:43:25;21.93;;;16.07;;
2386;SDS011;49473;50.772;8.768;2024-01-30T03:45:52;16.77;;;14.13;;
2386;SDS011;49473;50.772;8.768;2024-01-30T03:48:20;16.77;;;14.37;;
2386;SDS011;49473;50.772;8.768;2024-01-30T03:50:47;16.67;;;13.53;;
2386;SDS011;49473;50.772;8.768;2024-01-30T03:53:14;15.53;;;13.87;;
2386;SDS011;49473;50.772;8.768;2024-01-30T03:55:40;17.33;;;13.40;;
2386;SDS011;49473;50.772;8.768;2024-01-30T03:58:07;14.53;;;13.00;;
2386;SDS011;49473;50.772;8.768;2024-01-30T04:00:34;16.83;;;13.33;;
2386;SDS011;49473;50.772;8.768;2024-01-30T04:03:01;15.57;;;13.80;;
2386;SDS011;49473;50.772;8.768;2024-01-30T04:05:29;17.90;;;13.90;;
2386;SDS011;49473;50.772;8.768;2024-01-30T04:07:56;17.80;;;14.27;;
2386;SDS011;49473;50.772;8.768;2024-01-30T04:10:23;16.83;;;15.00;;
2386;SDS011;49473;50.772;8.768;2024-01-30T04:12:49;16.00;;;13.67;;
2386;SDS011;49473;50.772;8.768;2024-01-30T04:15:16;19.70;;;14.87;;
2386;SDS011;49473;50.772;8.768;2024-01-30T04:17:43;16.93;;;13.70;;
2386;SDS011;49473;50.772;8.768;2024-01-30T04:20:13;22.43;;;14.47;;
2386;SDS011;49473;50.772;8.768;2024-01-30T04:22:41;15.67;;;14.03;;
2386;SDS011;49473;50.772;8.768;2024-01-30T04:25:09;17.60;;;14.00;;
2386;SDS011;49473;50.772;8.768;2024-01-30T04:27:35;20.70;;;16.13;;
2386;SDS011;49473;50.772;8.768;2024-01-30T04:30:02;17.27;;;13.93;;
2386;SDS011;49473;50.772;8.768;2024-01-30T04:32:29;17.83;;;14.80;;
2386;SDS011;49473;50.772;8.768;2024-01-30T04:34:56;17.30;;;13.23;;
2386;SDS011;49473;50.772;8.768;2024-01-30T04:37:23;16.40;;;13.73;;
2386;SDS011;49473;50.772;8.768;2024-01-30T04:39:52;18.57;;;15.70;;
2386;SDS011;49473;50.772;8.768;2024-01-30T04:42:18;15.90;;;14.20;;
2386;SDS011;49473;50.772;8.768;2024-01-30T04:44:45;19.13;;;15.13;;
2386;SDS011;49473;50.772;8.768;2024-01-30T04:47:12;15.97;;;14.37;;
2386;SDS011;49473;50.772;8.768;2024-01-30T04:49:39;17.20;;;14.53;;
2386;SDS011;49473;50.772;8.768;2024-01-30T04:52:06;15.47;;;13.87;;
2386;SDS011;49473;50.772;8.768;2024-01-30T04:54:33;15.30;;;13.70;;
2386;SDS011;49473;50.772;8.768;2024-01-30T04:57:01;18.10;;;13.50;;
2386;SDS011;49473;50.772;8.768;2024-01-30T04:59:28;14.40;;;12.03;;
2386;SDS011;49473;50.772;8.768;2024-01-30T05:01:55;14.90;;;12.07;;
2386;SDS011;49473;50.772;8.768;2024-01-30T05:04:21;13.97;;;11.97;;
2386;SDS011;49473;50.772;8.768;2024-01-30T05:06:48;12.53;;;11.13;;
2386;SDS011;49473;50.772;8.768;2024-01-30T05:09:15;11.23;;;10.13;;
2386;SDS011;49473;50.772;8.768;2024-01-30T05:11:41;12.10;;;10.80;;
2386;SDS011;49473;50.772;8.768;2024-01-30T05:14:09;14.07;;;10.77;;
2386;SDS011;49473;50.772;8.768;2024-01-30T05:16:37;13.63;;;11.50;;
2386;SDS011;49473;50.772;8.768;2024-01-30T05:19:04;12.13;;;10.87;;
2386;SDS011;49473;50.772;8.768;2024-01-30T05:21:31;12.80;;;11.40;;
2386;SDS011;49473;50.772;8.768;2024-01-30T05:23:57;12.33;;;11.10;;
2386;SDS011;49473;50.772;8.768;2024-01-30T05:26:24;12.93;;;11.57;;
2386;SDS011;49473;50.772;8.768;2024-01-30T05:28:51;13.33;;;11.17;;
2386;SDS011;49473;50.772;8.768;2024-01-30T05:31:19;11.87;;;10.70;;
2386;SDS011;49473;50.772;8.768;2024-01-30T05:33:46;13.80;;;12.00;;
2386;SDS011;49473;50.772;8.768;2024-01-30T05:36:13;14.13;;;12.00;;
2386;SDS011;49473;50.772;8.768;2024-01-30T05:38:39;13.20;;;11.80;;
2386;SDS011;49473;50.772;8.768;2024-01-30T05:41:06;14.03;;;12.53;;
2386;SDS011;49473;50.772;8.768;2024-01-30T05:43:34;14.07;;;11.93;;
2386;SDS011;49473;50.772;8.768;2024-01-30T05:46:01;13.03;;;11.67;;
2386;SDS011;49473;50.772;8.768;2024-01-30T05:48:29;12.60;;;11.20;;
2386;SDS011;49473;50.772;8.768;2024-01-30T05:50:56;13.83;;;12.40;;
2386;SDS011;49473;50.772;8.768;2024-01-30T05:53:22;13.57;;;12.00;;
2386;SDS011;49473;50.772;8.768;2024-01-30T05:55:49;13.30;;;11.90;;
2386;SDS011;49473;50.772;8.768;2024-01-30T05:58:16;16.00;;;12.77;;
2386;SDS011;49473;50.772;8.768;2024-01-30T06:00:42;16.03;;;13.20;;
2386;SDS011;49473;50.772;8.768;2024-01-30T06:03:09;15.10;;;12.73;;
2386;SDS011;49473;50.772;8.768;2024-01-30T06:05:37;14.63;;;12.50;;
2386;SDS011;49473;50.772;8.768;2024-01-30T06:08:04;19.50;;;13.73;;
2386;SDS011;49473;50.772;8.768;2024-01-30T06:10:31;14.20;;;12.80;;
2386;SDS011;49473;50.772;8.768;2024-01-30T06:12:58;15.90;;;13.50;;
2386;SDS011;49473;50.772;8.768;2024-01-30T06:15:25;14.20;;;12.03;;
2386;SDS011;49473;50.772;8.768;2024-01-30T06:17:54;14.80;;;11.80;;
2386;SDS011;49473;50.772;8.768;2024-01-30T06:20:21;13.70;;;12.30;;
2386;SDS011;49473;50.772;8.768;2024-01-30T06:22:49;13.80;;;11.90;;
2386;SDS011;49473;50.772;8.768;2024-01-30T06:25:16;16.37;;;11.43;;
2386;SDS011;49473;50.772;8.768;2024-01-30T06:27:43;15.53;;;12.10;;
2386;SDS011;49473;50.772;8.768;2024-01-30T06:30:10;16.67;;;14.93;;
2386;SDS011;49473;50.772;8.768;2024-01-30T06:32:37;14.17;;;12.77;;
2386;SDS011;49473;50.772;8.768;2024-01-30T06:35:04;14.60;;;13.20;;
2386;SDS011;49473;50.772;8.768;2024-01-30T06:37:32;13.80;;;12.20;;
2386;SDS011;49473;50.772;8.768;2024-01-30T06:40:00;20.40;;;13.13;;
2386;SDS011;49473;50.772;8.768;2024-01-30T06:42:26;17.20;;;15.17;;
2386;SDS011;49473;50.772;8.768;2024-01-30T06:44:53;18.40;;;15.47;;
2386;SDS011;49473;50.772;8.768;2024-01-30T06:47:20;18.60;;;16.60;;
2386;SDS011;49473;50.772;8.768;2024-01-30T06:49:46;18.37;;;14.93;;
2386;SDS011;49473;50.772;8.768;2024-01-30T06:52:13;17.40;;;15.07;;
2386;SDS011;49473;50.772;8.768;2024-01-30T06:54:40;20.30;;;15.60;;
2386;SDS011;49473;50.772;8.768;2024-01-30T06:57:08;20.83;;;17.63;;
2386;SDS011;49473;50.772;8.768;2024-01-30T06:59:37;34.03;;;25.80;;
2386;SDS011;49473;50.772;8.768;2024-01-30T07:02:08;119.27;;;79.13;;
2386;SDS011;49473;50.772;8.768;2024-01-30T07:04:35;98.30;;;63.87;;
2386;SDS011;49473;50.772;8.768;2024-01-30T07:07:02;178.00;;;116.60;;
2386;SDS011;49473;50.772;8.768;2024-01-30T07:09:30;163.30;;;103.53;;
2386;SDS011;49473;50.772;8.768;2024-01-30T07:11:57;115.47;;;75.93;;
2386;SDS011;49473;50.772;8.768;2024-01-30T07:14:25;108.90;;;72.03;;
2386;SDS011;49473;50.772;8.768;2024-01-30T07:16:52;83.93;;;59.00;;
2386;SDS011;49473;50.772;8.768;2024-01-30T07:19:19;28.43;;;22.97;;
2386;SDS011;49473;50.772;8.768;2024-01-30T07:21:45;26.33;;;22.37;;
2386;SDS011;49473;50.772;8.768;2024-01-30T07:24:12;21.50;;;18.47;;
2386;SDS011;49473;50.772;8.768;2024-01-30T07:26:39;24.70;;;20.83;;
2386;SDS011;49473;50.772;8.768;2024-01-30T07:29:06;24.57;;;21.10;;
2386;SDS011;49473;50.772;8.768;2024-01-30T07:31:34;30.93;;;23.10;;
2386;SDS011;49473;50.772;8.768;2024-01-30T07:34:00;65.63;;;43.83;;
2386;SDS011;49473;50.772;8.768;2024-01-30T07:36:28;38.97;;;28.53;;
2386;SDS011;49473;50.772;8.768;2024-01-30T07:38:55;29.60;;;23.00;;
2386;SDS011;49473;50.772;8.768;2024-01-30T07:41:21;41.53;;;29.83;;
2386;SDS011;49473;50.772;8.768;2024-01-30T07:43:50;51.87;;;36.93;;
2386;SDS011;49473;50.772;8.768;2024-01-30T07:46:17;54.47;;;37.27;;
2386;SDS011;49473;50.772;8.768;2024-01-30T07:48:45;75.60;;;45.60;;
2386;SDS011;49473;50.772;8.768;2024-01-30T07:51:12;39.47;;;29.03;;
2386;SDS011;49473;50.772;8.768;2024-01-30T07:53:38;95.00;;;55.30;;
2386;SDS011;49473;50.772;8.768;2024-01-30T07:56:05;78.30;;;50.40;;
2386;SDS011;49473;50.772;8.768;2024-01-30T07:58:32;36.83;;;26.40;;
2386;SDS011;49473;50.772;8.768;2024-01-30T08:00:59;84.77;;;54.27;;
2386;SDS011;49473;50.772;8.768;2024-01-30T08:03:25;58.23;;;40.20;;
2386;SDS011;49473;50.772;8.768;2024-01-30T08:05:54;27.67;;;20.40;;
2386;SDS011;49473;50.772;8.768;2024-01-30T08:08:20;43.37;;;34.10;;
2386;SDS011;49473;50.772;8.768;2024-01-30T08:10:47;28.50;;;24.37;;
2386;SDS011;49473;50.772;8.768;2024-01-30T08:13:14;25.47;;;21.70;;
2386;SDS011;49473;50.772;8.768;2024-01-30T08:15:41;23.00;;;19.27;;
2386;SDS011;49473;50.772;8.768;2024-01-30T08:18:08;37.17;;;28.77;;
2386;SDS011;49473;50.772;8.768;2024-01-30T08:20:35;39.37;;;29.67;;
2386;SDS011;49473;50.772;8.768;2024-01-30T08:23:03;39.10;;;28.87;;
2386;SDS011;49473;50.772;8.768;2024-01-30T08:25:30;30.60;;;24.93;;
2386;SDS011;49473;50.772;8.768;2024-01-30T08:27:57;21.53;;;17.50;;
2386;SDS011;49473;50.772;8.768;2024-01-30T08:30:23;23.00;;;20.80;;
2386;SDS011;49473;50.772;8.768;2024-01-30T08:32:50;16.13;;;14.43;;
2386;SDS011;49473;50.772;8.768;2024-01-30T08:35:17;18.33;;;14.50;;
2386;SDS011;49473;50.772;8.768;2024-01-30T08:37:43;16.63;;;13.97;;
2386;SDS011;49473;50.772;8.768;2024-01-30T08:40:15;31.73;;;25.77;;
2386;SDS011;49473;50.772;8.768;2024-01-30T08:42:41;32.73;;;29.00;;
2386;SDS011;49473;50.772;8.768;2024-01-30T08:45:08;33.03;;;26.70;;
2386;SDS011;49473;50.772;8.768;2024-01-30T08:47:35;28.13;;;24.07;;
2386;SDS011;49473;50.772;8.768;2024-01-30T08:50:02;30.60;;;23.20;;
2386;SDS011;49473;50.772;8.768;2024-01-30T08:52:30;24.13;;;21.53;;
2386;SDS011;49473;50.772;8.768;2024-01-30T08:54:57;23.90;;;20.80;;
2386;SDS011;49473;50.772;8.768;2024-01-30T08:57:25;24.70;;;20.37;;
2386;SDS011;49473;50.772;8.768;2024-01-30T08:59:53;21.50;;;19.20;;
2386;SDS011;49473;50.772;8.768;2024-01-30T09:02:20;23.23;;;20.73;;
2386;SDS011;49473;50.772;8.768;2024-01-30T09:04:46;24.70;;;21.43;;
2386;SDS011;49473;50.772;8.768;2024-01-30T09:07:13;23.47;;;20.67;;
2386;SDS011;49473;50.772;8.768;2024-01-30T09:09:40;23.60;;;21.10;;
2386;SDS011;49473;50.772;8.768;2024-01-30T09:12:07;25.73;;;21.83;;
2386;SDS011;49473;50.772;8.768;2024-01-30T09:14:38;26.97;;;24.10;;
2386;SDS011;49473;50.772;8.768;2024-01-30T09:17:06;28.90;;;25.90;;
2386;SDS011;49473;50.772;8.768;2024-01-30T09:19:33;24.40;;;21.90;;
2386;SDS011;49473;50.772;8.768;2024-01-30T09:22:00;23.57;;;21.23;;
2386;SDS011;49473;50.772;8.768;2024-01-30T09:24:28;27.20;;;24.40;;
2386;SDS011;49473;50.772;8.768;2024-01-30T09:26:54;24.93;;;20.70;;
2386;SDS011;49473;50.772;8.768;2024-01-30T09:29:21;22.67;;;19.60;;
2386;SDS011;49473;50.772;8.768;2024-01-30T09:31:49;25.77;;;22.50;;
2386;SDS011;49473;50.772;8.768;2024-01-30T09:34:16;22.73;;;18.67;;
2386;SDS011;49473;50.772;8.768;2024-01-30T09:36:43;22.10;;;19.77;;
2386;SDS011;49473;50.772;8.768;2024-01-30T09:39:09;24.07;;;20.53;;
2386;SDS011;49473;50.772;8.768;2024-01-30T09:41:38;20.53;;;18.43;;
2386;SDS011;49473;50.772;8.768;2024-01-30T09:44:11;22.23;;;19.00;;
2386;SDS011;49473;50.772;8.768;2024-01-30T09:46:40;19.80;;;17.80;;
2386;SDS011;49473;50.772;8.768;2024-01-30T09:49:09;20.47;;;18.40;;
2386;SDS011;49473;50.772;8.768;2024-01-30T09:51:35;23.20;;;17.47;;
2386;SDS011;49473;50.772;8.768;2024-01-30T09:54:02;18.53;;;16.60;;
2386;SDS011;49473;50.772;8.768;2024-01-30T09:56:29;18.80;;;16.90;;
2386;SDS011;49473;50.772;8.768;2024-01-30T09:58:56;19.60;;;16.80;;
2386;SDS011;49473;50.772;8.768;2024-01-30T10:01:22;18.53;;;16.60;;
2386;SDS011;49473;50.772;8.768;2024-01-30T10:03:50;16.47;;;14.90;;
2386;SDS011;49473;50.772;8.768;2024-01-30T10:06:19;17.60;;;15.87;;
2386;SDS011;49473;50.772;8.768;2024-01-30T10:08:47;16.30;;;14.80;;
2386;SDS011;49473;50.772;8.768;2024-01-30T10:11:14;17.03;;;15.43;;
2386;SDS011;49473;50.772;8.768;2024-01-30T10:13:41;18.03;;;16.33;;
2386;SDS011;49473;50.772;8.768;2024-01-30T10:16:07;15.43;;;14.03;;
2386;SDS011;49473;50.772;8.768;2024-01-30T10:18:34;16.33;;;14.83;;
2386;SDS011;49473;50.772;8.768;2024-01-30T10:21:01;16.40;;;14.90;;
2386;SDS011;49473;50.772;8.768;2024-01-30T10:23:29;17.00;;;15.40;;
2386;SDS011;49473;50.772;8.768;2024-01-30T10:25:56;17.57;;;15.97;;
2386;SDS011;49473;50.772;8.768;2024-01-30T10:28:26;18.43;;;16.63;;
2386;SDS011;49473;50.772;8.768;2024-01-30T10:30:57;18.40;;;16.60;;
2386;SDS011;49473;50.772;8.768;2024-01-30T10:33:25;17.70;;;16.07;;
2386;SDS011;49473;50.772;8.768;2024-01-30T10:35:53;17.43;;;15.83;;
2386;SDS011;49473;50.772;8.768;2024-01-30T10:38:21;18.13;;;16.43;;
2386;SDS011;49473;50.772;8.768;2024-01-30T10:40:51;17.60;;;15.93;;
2386;SDS011;49473;50.772;8.768;2024-01-30T10:43:21;18.80;;;17.07;;
2386;SDS011;49473;50.772;8.768;2024-01-30T10:45:50;17.67;;;16.03;;
2386;SDS011;49473;50.772;8.768;2024-01-30T10:48:19;16.17;;;14.47;;
2386;SDS011;49473;50.772;8.768;2024-01-30T10:50:55;16.50;;;15.00;;
2386;SDS011;49473;50.772;8.768;2024-01-30T10:53:25;17.60;;;15.87;;
2386;SDS011;49473;50.772;8.768;2024-01-30T10:55:54;17.23;;;15.43;;
2386;SDS011;49473;50.772;8.768;2024-01-30T10:58:22;18.43;;;16.73;;
2386;SDS011;49473;50.772;8.768;2024-01-30T11:00:49;17.67;;;15.93;;
2386;SDS011;49473;50.772;8.768;2024-01-30T11:03:17;19.07;;;16.90;;
2386;SDS011;49473;50.772;8.768;2024-01-30T11:05:48;16.83;;;15.13;;
2386;SDS011;49473;50.772;8.768;2024-01-30T11:08:22;17.80;;;16.20;;
2386;SDS011;49473;50.772;8.768;2024-01-30T11:10:49;18.40;;;16.50;;
2386;SDS011;49473;50.772;8.768;2024-01-30T11:13:21;16.97;;;15.37;;
2386;SDS011;49473;50.772;8.768;2024-01-30T11:15:48;17.00;;;15.37;;
2386;SDS011;49473;50.772;8.768;2024-01-30T11:18:22;17.77;;;16.17;;
2386;SDS011;49473;50.772;8.768;2024-01-30T11:20:49;17.50;;;15.80;;
2386;SDS011;49473;50.772;8.768;2024-01-30T11:23:16;17.80;;;16.20;;
2386;SDS011;49473;50.772;8.768;2024-01-30T11:25:43;18.57;;;16.67;;
2386;SDS011;49473;50.772;8.768;2024-01-30T11:28:12;17.07;;;15.27;;
2386;SDS011;49473;50.772;8.768;2024-01-30T11:30:41;17.43;;;15.87;;
2386;SDS011;49473;50.772;8.768;2024-01-30T11:33:09;16.20;;;14.53;;
2386;SDS011;49473;50.772;8.768;2024-01-30T11:35:37;17.07;;;15.37;;
2386;SDS011;49473;50.772;8.768;2024-01-30T11:38:05;16.23;;;14.73;;
2386;SDS011;49473;50.772;8.768;2024-01-30T11:40:33;16.70;;;15.17;;
2386;SDS011;49473;50.772;8.768;2024-01-30T11:43:01;18.77;;;16.23;;
2386;SDS011;49473;50.772;8.768;2024-01-30T11:45:29;15.70;;;14.27;;
2386;SDS011;49473;50.772;8.768;2024-01-30T11:47:58;14.70;;;13.50;;
2386;SDS011;49473;50.772;8.768;2024-01-30T11:50:28;18.00;;;16.40;;
2386;SDS011;49473;50.772;8.768;2024-01-30T11:52:55;17.07;;;15.67;;
2386;SDS011;49473;50.772;8.768;2024-01-30T11:55:24;15.53;;;14.23;;
2386;SDS011;49473;50.772;8.768;2024-01-30T11:57:51;20.27;;;18.13;;
2386;SDS011;49473;50.772;8.768;2024-01-30T12:00:21;17.70;;;16.07;;
2386;SDS011;49473;50.772;8.768;2024-01-30T12:02:48;18.13;;;16.40;;
2386;SDS011;49473;50.772;8.768;2024-01-30T12:05:18;18.23;;;16.47;;
2386;SDS011;49473;50.772;8.768;2024-01-30T12:07:45;17.13;;;15.53;;
2386;SDS011;49473;50.772;8.768;2024-01-30T12:10:12;18.47;;;16.73;;
2386;SDS011;49473;50.772;8.768;2024-01-30T12:12:40;17.50;;;15.90;;
2386;SDS011;49473;50.772;8.768;2024-01-30T12:15:08;17.47;;;15.87;;
2386;SDS011;49473;50.772;8.768;2024-01-30T12:17:36;17.00;;;15.40;;
2386;SDS011;49473;50.772;8.768;2024-01-30T12:20:03;16.60;;;15.10;;
2386;SDS011;49473;50.772;8.768;2024-01-30T12:22:34;18.70;;;17.07;;
2386;SDS011;49473;50.772;8.768;2024-01-30T12:25:03;20.10;;;18.40;;
2386;SDS011;49473;50.772;8.768;2024-01-30T12:27:31;19.20;;;17.50;;
2386;SDS011;49473;50.772;8.768;2024-01-30T12:29:58;18.67;;;16.90;;
2386;SDS011;49473;50.772;8.768;2024-01-30T12:32:25;19.33;;;17.63;;
2386;SDS011;49473;50.772;8.768;2024-01-30T12:34:54;18.50;;;16.90;;
2386;SDS011;49473;50.772;8.768;2024-01-30T12:37:21;17.73;;;16.07;;
2386;SDS011;49473;50.772;8.768;2024-01-30T12:39:51;19.00;;;17.23;;
2386;SDS011;49473;50.772;8.768;2024-01-30T12:42:19;20.07;;;18.17;;
2386;SDS011;49473;50.772;8.768;2024-01-30T12:44:47;19.77;;;17.97;;
2386;SDS011;49473;50.772;8.768;2024-01-30T12:47:14;18.60;;;17.00;;
2386;SDS011;49473;50.772;8.768;2024-01-30T12:49:41;19.23;;;17.50;;
2386;SDS011;49473;50.772;8.768;2024-01-30T12:52:09;18.80;;;17.00;;
2386;SDS011;49473;50.772;8.768;2024-01-30T12:54:35;20.13;;;18.23;;
2386;SDS011;49473;50.772;8.768;2024-01-30T12:57:04;19.33;;;17.47;;
2386;SDS011;49473;50.772;8.768;2024-01-30T12:59:31;19.47;;;17.50;;
2386;SDS011;49473;50.772;8.768;2024-01-30T13:01:58;18.90;;;17.20;;
2386;SDS011;49473;50.772;8.768;2024-01-30T13:04:26;19.73;;;17.93;;
2386;SDS011;49473;50.772;8.768;2024-01-30T13:06:53;19.13;;;17.37;;
2386;SDS011;49473;50.772;8.768;2024-01-30T13:09:20;19.20;;;17.40;;
2386;SDS011;49473;50.772;8.768;2024-01-30T13:11:47;19.57;;;17.83;;
2386;SDS011;49473;50.772;8.768;2024-01-30T13:14:16;19.40;;;17.40;;
2386;SDS011;49473;50.772;8.768;2024-01-30T13:16:43;18.93;;;17.00;;
2386;SDS011;49473;50.772;8.768;2024-01-30T13:19:10;19.13;;;17.47;;
2386;SDS011;49473;50.772;8.768;2024-01-30T13:21:36;19.73;;;17.90;;
2386;SDS011;49473;50.772;8.768;2024-01-30T13:24:04;19.90;;;17.90;;
2386;SDS011;49473;50.772;8.768;2024-01-30T13:26:32;19.83;;;17.87;;
2386;SDS011;49473;50.772;8.768;2024-01-30T13:28:59;20.60;;;18.70;;
2386;SDS011;49473;50.772;8.768;2024-01-30T13:31:27;19.77;;;17.87;;
2386;SDS011;49473;50.772;8.768;2024-01-30T13:33:54;20.50;;;18.30;;
2386;SDS011;49473;50.772;8.768;2024-01-30T13:36:21;20.30;;;18.30;;
2386;SDS011;49473;50.772;8.768;2024-01-30T13:38:48;20.30;;;18.47;;
2386;SDS011;49473;50.772;8.768;2024-01-30T13:41:15;20.37;;;18.30;;
2386;SDS011;49473;50.772;8.768;2024-01-30T13:43:42;20.07;;;18.17;;
2386;SDS011;49473;50.772;8.768;2024-01-30T13:46:09;20.00;;;18.10;;
2386;SDS011;49473;50.772;8.768;2024-01-30T13:48:37;22.70;;;19.20;;
2386;SDS011;49473;50.772;8.768;2024-01-30T13:51:04;22.00;;;19.93;;
2386;SDS011;49473;50.772;8.768;2024-01-30T13:53:31;22.00;;;19.77;;
2386;SDS011;49473;50.772;8.768;2024-01-30T13:55:58;20.10;;;18.20;;
2386;SDS011;49473;50.772;8.768;2024-01-30T13:58:25;21.10;;;19.10;;
2386;SDS011;49473;50.772;8.768;2024-01-30T14:00:52;20.30;;;18.47;;
2386;SDS011;49473;50.772;8.768;2024-01-30T14:03:19;20.67;;;18.67;;
2386;SDS011;49473;50.772;8.768;2024-01-30T14:05:47;19.90;;;18.10;;
2386;SDS011;49473;50.772;8.768;2024-01-30T14:08:14;21.60;;;19.60;;
2386;SDS011;49473;50.772;8.768;2024-01-30T14:10:41;19.10;;;17.27;;
2386;SDS011;49473;50.772;8.768;2024-01-30T14:13:08;20.33;;;18.30;;
2386;SDS011;49473;50.772;8.768;2024-01-30T14:15:36;20.77;;;18.90;;
2386;SDS011;49473;50.772;8.768;2024-01-30T14:18:03;20.40;;;18.60;;
2386;SDS011;49473;50.772;8.768;2024-01-30T14:20:30;19.93;;;18.03;;
2386;SDS011;49473;50.772;8.768;2024-01-30T14:22:58;19.67;;;17.77;;
2386;SDS011;49473;50.772;8.768;2024-01-30T14:25:25;21.50;;;19.40;;
2386;SDS011;49473;50.772;8.768;2024-01-30T14:27:52;24.47;;;21.70;;
2386;SDS011;49473;50.772;8.768;2024-01-30T14:30:18;24.17;;;21.73;;
2386;SDS011;49473;50.772;8.768;2024-01-30T14:32:45;22.70;;;20.60;;